sensor_id;sensor_type;location;lat;lon;timestamp;pressure;altitude;pressure_sealevel;temperature;humidity
21300;BME280;10809;49.476;11.016;2022-08-20T00:01:32;98109.59;;;18.74;73.81
21300;BME280;10809;49.476;11.016;2022-08-20T00:04:06;98112.25;;;18.74;74.01
21300;BME280;10809;49.476;11.016;2022-08-20T00:06:37;98108.72;;;18.73;73.89
21300;BME280;10809;49.476;11.016;2022-08-20T00:09:09;98111.53;;;18.72;73.89
21300;BME280;10809;49.476;11.016;2022-08-20T00:11:39;98113.38;;;18.71;73.85
21300;BME280;10809;49.476;11.016;2022-08-20T00:14:10;98117.06;;;18.70;73.94
21300;BME280;10809;49.476;11.016;2022-08-20T00:16:40;98116.19;;;18.70;74.12
21300;BME280;10809;49.476;11.016;2022-08-20T00:19:11;98109.16;;;18.69;73.98
21300;BME280;10809;49.476;11.016;2022-08-20T00:21:45;98107.47;;;18.68;73.90
21300;BME280;10809;49.476;11.016;2022-08-20T00:24:15;98102.09;;;18.68;74.02
21300;BME280;10809;49.476;11.016;2022-08-20T00:26:46;98103.91;;;18.67;73.61
21300;BME280;10809;49.476;11.016;2022-08-20T00:29:16;98100.38;;;18.67;73.89
21300;BME280;10809;49.476;11.016;2022-08-20T00:31:49;98099.56;;;18.66;74.04
21300;BME280;10809;49.476;11.016;2022-08-20T00:34:20;98099.69;;;18.65;73.95
21300;BME280;10809;49.476;11.016;2022-08-20T00:36:51;98102.38;;;18.65;74.07
21300;BME280;10809;49.476;11.016;2022-08-20T00:39:21;98097.97;;;18.64;73.78
21300;BME280;10809;49.476;11.016;2022-08-20T00:41:51;98099.56;;;18.66;73.94
21300;BME280;10809;49.476;11.016;2022-08-20T00:44:22;98097.00;;;18.65;73.93
21300;BME280;10809;49.476;11.016;2022-08-20T00:46:56;98103.19;;;18.65;73.93
21300;BME280;10809;49.476;11.016;2022-08-20T00:49:28;98106.88;;;18.64;74.09
21300;BME280;10809;49.476;11.016;2022-08-20T00:52:05;98108.72;;;18.64;74.18
21300;BME280;10809;49.476;11.016;2022-08-20T00:54:48;98106.03;;;18.64;74.18
21300;BME280;10809;49.476;11.016;2022-08-20T00:57:32;98118.47;;;18.65;74.08
21300;BME280;10809;49.476;11.016;2022-08-20T01:00:08;98114.06;;;18.64;74.02
21300;BME280;10809;49.476;11.016;2022-08-20T01:02:44;98110.56;;;18.63;73.97
21300;BME280;10809;49.476;11.016;2022-08-20T01:05:16;98121.28;;;18.63;74.15
21300;BME280;10809;49.476;11.016;2022-08-20T01:07:46;98115.94;;;18.63;74.10
21300;BME280;10809;49.476;11.016;2022-08-20T01:10:23;98110.56;;;18.63;74.03
21300;BME280;10809;49.476;11.016;2022-08-20T01:12:57;98117.75;;;18.63;74.24
21300;BME280;10809;49.476;11.016;2022-08-20T01:15:29;98120.44;;;18.63;74.19
21300;BME280;10809;49.476;11.016;2022-08-20T01:18:01;98118.75;;;18.62;74.29
21300;BME280;10809;49.476;11.016;2022-08-20T01:20:52;98124.13;;;18.62;74.30
21300;BME280;10809;49.476;11.016;2022-08-20T01:23:50;98116.91;;;18.62;74.14
21300;BME280;10809;49.476;11.016;2022-08-20T01:26:43;98117.91;;;18.61;73.97
21300;BME280;10809;49.476;11.016;2022-08-20T01:29:19;98117.03;;;18.61;73.88
21300;BME280;10809;49.476;11.016;2022-08-20T01:31:51;98109.13;;;18.59;73.89
21300;BME280;10809;49.476;11.016;2022-08-20T01:34:24;98103.91;;;18.58;73.92
21300;BME280;10809;49.476;11.016;2022-08-20T01:36:56;98105.75;;;18.57;74.13
21300;BME280;10809;49.476;11.016;2022-08-20T01:39:30;98096.00;;;18.56;74.21
21300;BME280;10809;49.476;11.016;2022-08-20T01:44:38;98105.19;;;18.54;74.13
21300;BME280;10809;49.476;11.016;2022-08-20T01:47:23;98104.31;;;18.53;74.09
21300;BME280;10809;49.476;11.016;2022-08-20T01:53:16;98105.31;;;18.52;74.04
21300;BME280;10809;49.476;11.016;2022-08-20T01:55:47;98107.16;;;18.52;73.73
21300;BME280;10809;49.476;11.016;2022-08-20T01:58:17;98102.91;;;18.49;73.95
21300;BME280;10809;49.476;11.016;2022-08-20T02:00:48;98111.09;;;18.48;73.93
21300;BME280;10809;49.476;11.016;2022-08-20T02:03:18;98109.53;;;18.45;73.55
21300;BME280;10809;49.476;11.016;2022-08-20T02:05:49;98109.66;;;18.44;73.49
21300;BME280;10809;49.476;11.016;2022-08-20T02:08:22;98109.81;;;18.42;73.90
21300;BME280;10809;49.476;11.016;2022-08-20T02:10:55;98110.81;;;18.41;73.82
21300;BME280;10809;49.476;11.016;2022-08-20T02:13:26;98117.16;;;18.40;74.23
21300;BME280;10809;49.476;11.016;2022-08-20T02:16:03;98121.66;;;18.40;74.16
21300;BME280;10809;49.476;11.016;2022-08-20T02:18:35;98121.81;;;18.38;74.23
21300;BME280;10809;49.476;11.016;2022-08-20T02:21:06;98128.03;;;18.39;74.20
21300;BME280;10809;49.476;11.016;2022-08-20T02:23:36;98128.03;;;18.39;74.18
21300;BME280;10809;49.476;11.016;2022-08-20T02:26:06;98127.16;;;18.38;74.06
21300;BME280;10809;49.476;11.016;2022-08-20T02:28:37;98121.09;;;18.36;73.92
21300;BME280;10809;49.476;11.016;2022-08-20T02:31:08;98108.53;;;18.37;74.21
21300;BME280;10809;49.476;11.016;2022-08-20T02:33:41;98113.91;;;18.37;74.28
21300;BME280;10809;49.476;11.016;2022-08-20T02:36:15;98111.34;;;18.35;74.21
21300;BME280;10809;49.476;11.016;2022-08-20T02:38:47;98111.34;;;18.35;74.06
21300;BME280;10809;49.476;11.016;2022-08-20T02:41:18;98106.00;;;18.35;73.96
21300;BME280;10809;49.476;11.016;2022-08-20T02:43:54;98110.50;;;18.35;73.93
21300;BME280;10809;49.476;11.016;2022-08-20T02:46:24;98119.53;;;18.34;74.26
21300;BME280;10809;49.476;11.016;2022-08-20T02:48:57;98110.63;;;18.33;74.29
21300;BME280;10809;49.476;11.016;2022-08-20T02:51:31;98110.78;;;18.32;74.30
21300;BME280;10809;49.476;11.016;2022-08-20T02:54:02;98107.13;;;18.33;74.30
21300;BME280;10809;49.476;11.016;2022-08-20T02:56:35;98100.91;;;18.32;74.32
21300;BME280;10809;49.476;11.016;2022-08-20T02:59:06;98102.72;;;18.32;74.38
21300;BME280;10809;49.476;11.016;2022-08-20T03:01:40;98099.22;;;18.31;74.35
21300;BME280;10809;49.476;11.016;2022-08-20T03:04:10;98099.22;;;18.31;74.22
21300;BME280;10809;49.476;11.016;2022-08-20T03:06:43;98103.72;;;18.31;74.20
21300;BME280;10809;49.476;11.016;2022-08-20T03:09:14;98104.59;;;18.31;74.54
21300;BME280;10809;49.476;11.016;2022-08-20T03:11:44;98106.56;;;18.29;74.20
21300;BME280;10809;49.476;11.016;2022-08-20T03:14:18;98102.03;;;18.30;74.51
21300;BME280;10809;49.476;11.016;2022-08-20T03:16:51;98103.00;;;18.29;74.21
21300;BME280;10809;49.476;11.016;2022-08-20T03:19:21;98105.69;;;18.29;74.02
21300;BME280;10809;49.476;11.016;2022-08-20T03:21:52;98105.84;;;18.27;74.06
21300;BME280;10809;49.476;11.016;2022-08-20T03:24:23;98108.50;;;18.27;74.49
21300;BME280;10809;49.476;11.016;2022-08-20T03:26:53;98100.59;;;18.26;74.47
21300;BME280;10809;49.476;11.016;2022-08-20T03:29:23;98101.47;;;18.26;74.20
21300;BME280;10809;49.476;11.016;2022-08-20T03:31:54;98105.97;;;18.26;74.26
21300;BME280;10809;49.476;11.016;2022-08-20T03:34:25;98104.28;;;18.25;74.34
21300;BME280;10809;49.476;11.016;2022-08-20T03:36:55;98105.13;;;18.25;74.50
21300;BME280;10809;49.476;11.016;2022-08-20T03:39:26;98105.13;;;18.25;74.32
21300;BME280;10809;49.476;11.016;2022-08-20T03:41:56;98109.66;;;18.25;74.61
21300;BME280;10809;49.476;11.016;2022-08-20T03:44:30;98106.97;;;18.25;74.47
21300;BME280;10809;49.476;11.016;2022-08-20T03:47:03;98106.09;;;18.24;74.54
21300;BME280;10809;49.476;11.016;2022-08-20T03:49:36;98105.28;;;18.24;74.45
21300;BME280;10809;49.476;11.016;2022-08-20T03:52:07;98107.97;;;18.24;74.62
21300;BME280;10809;49.476;11.016;2022-08-20T03:54:40;98116.81;;;18.24;74.49
21300;BME280;10809;49.476;11.016;2022-08-20T03:57:13;98111.59;;;18.23;74.52
21300;BME280;10809;49.476;11.016;2022-08-20T03:59:43;98111.59;;;18.23;74.54
21300;BME280;10809;49.476;11.016;2022-08-20T04:02:14;98121.38;;;18.24;74.57
21300;BME280;10809;49.476;11.016;2022-08-20T04:04:44;98117.97;;;18.22;74.48
21300;BME280;10809;49.476;11.016;2022-08-20T04:07:23;98123.31;;;18.22;74.59
21300;BME280;10809;49.476;11.016;2022-08-20T04:09:56;98120.66;;;18.22;74.52
21300;BME280;10809;49.476;11.016;2022-08-20T04:12:27;98119.78;;;18.21;74.50
21300;BME280;10809;49.476;11.016;2022-08-20T04:14:57;98119.91;;;18.20;74.62
21300;BME280;10809;49.476;11.016;2022-08-20T04:17:27;98132.34;;;18.21;74.39
21300;BME280;10809;49.476;11.016;2022-08-20T04:19:58;98138.69;;;18.20;74.35
21300;BME280;10809;49.476;11.016;2022-08-20T04:22:28;98137.00;;;18.19;74.51
21300;BME280;10809;49.476;11.016;2022-08-20T04:24:59;98145.03;;;18.19;74.49
21300;BME280;10809;49.476;11.016;2022-08-20T04:27:29;98148.72;;;18.18;74.57
21300;BME280;10809;49.476;11.016;2022-08-20T04:30:03;98146.03;;;18.18;74.54
21300;BME280;10809;49.476;11.016;2022-08-20T04:32:33;98155.91;;;18.17;74.71
21300;BME280;10809;49.476;11.016;2022-08-20T04:35:08;98157.59;;;18.18;74.77
21300;BME280;10809;49.476;11.016;2022-08-20T04:37:38;98156.88;;;18.16;74.64
21300;BME280;10809;49.476;11.016;2022-08-20T04:40:12;98154.22;;;18.16;74.72
21300;BME280;10809;49.476;11.016;2022-08-20T04:43:03;98154.91;;;18.18;74.94
21300;BME280;10809;49.476;11.016;2022-08-20T04:45:34;98162.94;;;18.18;74.84
21300;BME280;10809;49.476;11.016;2022-08-20T04:48:05;98155.75;;;18.19;74.83
21300;BME280;10809;49.476;11.016;2022-08-20T04:50:37;98157.59;;;18.18;74.76
21300;BME280;10809;49.476;11.016;2022-08-20T04:53:10;98156.75;;;18.18;74.87
21300;BME280;10809;49.476;11.016;2022-08-20T04:55:41;98161.13;;;18.19;74.91
21300;BME280;10809;49.476;11.016;2022-08-20T04:58:15;98161.97;;;18.19;74.73
21300;BME280;10809;49.476;11.016;2022-08-20T05:00:53;98172.69;;;18.19;74.91
21300;BME280;10809;49.476;11.016;2022-08-20T05:03:24;98167.34;;;18.19;75.00
21300;BME280;10809;49.476;11.016;2022-08-20T05:05:55;98160.97;;;18.20;74.87
21300;BME280;10809;49.476;11.016;2022-08-20T05:08:27;98160.97;;;18.20;74.81
21300;BME280;10809;49.476;11.016;2022-08-20T05:10:58;98158.31;;;18.20;74.81
21300;BME280;10809;49.476;11.016;2022-08-20T05:13:32;98163.66;;;18.20;74.96
21300;BME280;10809;49.476;11.016;2022-08-20T05:16:02;98169.88;;;18.21;75.05
21300;BME280;10809;49.476;11.016;2022-08-20T05:18:34;98158.16;;;18.22;74.89
21300;BME280;10809;49.476;11.016;2022-08-20T05:21:06;98165.34;;;18.21;75.08
21300;BME280;10809;49.476;11.016;2022-08-20T05:23:37;98157.16;;;18.23;75.00
21300;BME280;10809;49.476;11.016;2022-08-20T05:26:10;98163.53;;;18.22;74.92
21300;BME280;10809;49.476;11.016;2022-08-20T05:28:44;98159.03;;;18.22;75.17
21300;BME280;10809;49.476;11.016;2022-08-20T05:31:14;98163.53;;;18.22;75.06
21300;BME280;10809;49.476;11.016;2022-08-20T05:33:45;98163.53;;;18.22;75.25
21300;BME280;10809;49.476;11.016;2022-08-20T05:36:15;98167.06;;;18.22;74.99
21300;BME280;10809;49.476;11.016;2022-08-20T05:38:48;98172.28;;;18.24;74.95
21300;BME280;10809;49.476;11.016;2022-08-20T05:41:19;98179.34;;;18.25;75.03
21300;BME280;10809;49.476;11.016;2022-08-20T05:43:50;98181.03;;;18.26;75.14
21300;BME280;10809;49.476;11.016;2022-08-20T05:46:20;98168.63;;;18.25;75.25
21300;BME280;10809;49.476;11.016;2022-08-20T05:48:55;98170.31;;;18.26;75.44
21300;BME280;10809;49.476;11.016;2022-08-20T05:51:27;98164.81;;;18.27;75.39
21300;BME280;10809;49.476;11.016;2022-08-20T05:53:58;98166.53;;;18.28;75.74
21300;BME280;10809;49.476;11.016;2022-08-20T05:56:32;98168.06;;;18.31;75.45
21300;BME280;10809;49.476;11.016;2022-08-20T05:59:04;98170.63;;;18.32;75.56
21300;BME280;10809;49.476;11.016;2022-08-20T06:01:37;98177.53;;;18.35;75.36
21300;BME280;10809;49.476;11.016;2022-08-20T06:04:08;98178.38;;;18.35;75.53
21300;BME280;10809;49.476;11.016;2022-08-20T06:07:02;98179.09;;;18.37;75.35
21300;BME280;10809;49.476;11.016;2022-08-20T06:09:33;98182.34;;;18.41;75.62
21300;BME280;10809;49.476;11.016;2022-08-20T06:12:05;98187.56;;;18.42;75.51
21300;BME280;10809;49.476;11.016;2022-08-20T06:14:38;98187.44;;;18.44;75.67
21300;BME280;10809;49.476;11.016;2022-08-20T06:17:11;98192.50;;;18.47;75.50
21300;BME280;10809;49.476;11.016;2022-08-20T06:19:44;98192.38;;;18.48;75.51
21300;BME280;10809;49.476;11.016;2022-08-20T06:22:16;98191.41;;;18.49;75.33
21300;BME280;10809;49.476;11.016;2022-08-20T06:24:46;98188.59;;;18.51;75.56
21300;BME280;10809;49.476;11.016;2022-08-20T06:27:17;98192.97;;;18.52;75.52
21300;BME280;10809;49.476;11.016;2022-08-20T06:29:49;98202.69;;;18.53;75.55
21300;BME280;10809;49.476;11.016;2022-08-20T06:32:22;98204.28;;;18.55;75.57
21300;BME280;10809;49.476;11.016;2022-08-20T06:35:23;98205.81;;;18.58;75.50
21300;BME280;10809;49.476;11.016;2022-08-20T06:37:53;98211.91;;;18.60;75.25
21300;BME280;10809;49.476;11.016;2022-08-20T06:40:29;98211.63;;;18.63;75.66
21300;BME280;10809;49.476;11.016;2022-08-20T06:42:59;98204.31;;;18.65;75.64
21300;BME280;10809;49.476;11.016;2022-08-20T06:45:35;98198.66;;;18.68;75.53
21300;BME280;10809;49.476;11.016;2022-08-20T06:48:10;98209.13;;;18.71;75.52
21300;BME280;10809;49.476;11.016;2022-08-20T06:50:43;98198.97;;;18.74;75.77
21300;BME280;10809;49.476;11.016;2022-08-20T06:53:18;98202.22;;;18.78;75.56
21300;BME280;10809;49.476;11.016;2022-08-20T06:55:54;98195.59;;;18.82;75.76
21300;BME280;10809;49.476;11.016;2022-08-20T06:58:26;98203.22;;;18.86;75.64
21300;BME280;10809;49.476;11.016;2022-08-20T07:00:57;98209.88;;;18.92;75.78
21300;BME280;10809;49.476;11.016;2022-08-20T07:03:27;98206.63;;;18.98;75.80
21300;BME280;10809;49.476;11.016;2022-08-20T07:05:57;98209.72;;;19.03;75.38
21300;BME280;10809;49.476;11.016;2022-08-20T07:08:28;98206.63;;;19.07;75.00
21300;BME280;10809;49.476;11.016;2022-08-20T07:10:58;98213.44;;;19.11;74.86
21300;BME280;10809;49.476;11.016;2022-08-20T07:13:29;98206.09;;;19.13;74.78
21300;BME280;10809;49.476;11.016;2022-08-20T07:15:59;98205.09;;;19.14;74.48
21300;BME280;10809;49.476;11.016;2022-08-20T07:18:30;98206.63;;;19.17;74.70
21300;BME280;10809;49.476;11.016;2022-08-20T07:21:00;98207.22;;;19.20;74.81
21300;BME280;10809;49.476;11.016;2022-08-20T07:23:31;98211.16;;;19.26;75.29
21300;BME280;10809;49.476;11.016;2022-08-20T07:26:01;98206.78;;;19.34;75.66
21300;BME280;10809;49.476;11.016;2022-08-20T07:28:32;98208.47;;;19.45;75.97
21300;BME280;10809;49.476;11.016;2022-08-20T07:31:03;98201.28;;;19.55;75.61
21300;BME280;10809;49.476;11.016;2022-08-20T07:33:52;98205.50;;;19.67;75.71
21300;BME280;10809;49.476;11.016;2022-08-20T07:36:22;98199.97;;;19.78;75.69
21300;BME280;10809;49.476;11.016;2022-08-20T07:38:53;98208.53;;;19.91;74.76
21300;BME280;10809;49.476;11.016;2022-08-20T07:41:26;98209.69;;;19.98;74.60
21300;BME280;10809;49.476;11.016;2022-08-20T07:43:57;98203.00;;;20.02;73.96
21300;BME280;10809;49.476;11.016;2022-08-20T07:46:27;98217.84;;;20.06;73.49
21300;BME280;10809;49.476;11.016;2022-08-20T07:49:00;98220.53;;;20.06;72.48
21300;BME280;10809;49.476;11.016;2022-08-20T07:51:30;98227.75;;;20.06;72.82
21300;BME280;10809;49.476;11.016;2022-08-20T07:54:01;98224.50;;;20.02;72.62
21300;BME280;10809;49.476;11.016;2022-08-20T07:56:31;98234.56;;;20.00;72.35
21300;BME280;10809;49.476;11.016;2022-08-20T07:59:01;98227.78;;;19.96;72.36
21300;BME280;10809;49.476;11.016;2022-08-20T08:01:32;98230.75;;;19.93;72.62
21300;BME280;10809;49.476;11.016;2022-08-20T08:04:02;98225.81;;;19.89;72.70
21300;BME280;10809;49.476;11.016;2022-08-20T08:06:33;98227.13;;;19.85;72.66
21300;BME280;10809;49.476;11.016;2022-08-20T08:09:07;98231.94;;;19.81;72.49
21300;BME280;10809;49.476;11.016;2022-08-20T08:11:45;98236.88;;;19.76;72.37
21300;BME280;10809;49.476;11.016;2022-08-20T08:14:24;98236.47;;;19.71;72.42
21300;BME280;10809;49.476;11.016;2022-08-20T08:17:02;98235.06;;;19.67;72.55
21300;BME280;10809;49.476;11.016;2022-08-20T08:19:36;98226.31;;;19.65;72.63
21300;BME280;10809;49.476;11.016;2022-08-20T08:22:11;98234.66;;;19.62;73.03
21300;BME280;10809;49.476;11.016;2022-08-20T08:24:43;98234.91;;;19.59;72.94
21300;BME280;10809;49.476;11.016;2022-08-20T08:27:19;98239.59;;;19.57;72.33
21300;BME280;10809;49.476;11.016;2022-08-20T08:29:50;98241.44;;;19.56;72.42
21300;BME280;10809;49.476;11.016;2022-08-20T08:32:20;98242.56;;;19.54;72.39
21300;BME280;10809;49.476;11.016;2022-08-20T08:34:51;98247.22;;;19.52;72.53
21300;BME280;10809;49.476;11.016;2022-08-20T08:37:24;98251.03;;;19.49;72.64
21300;BME280;10809;49.476;11.016;2022-08-20T08:39:54;98253.84;;;19.48;72.64
21300;BME280;10809;49.476;11.016;2022-08-20T08:42:33;98252.00;;;19.48;72.83
21300;BME280;10809;49.476;11.016;2022-08-20T08:45:07;98253.00;;;19.47;73.12
21300;BME280;10809;49.476;11.016;2022-08-20T08:47:43;98255.69;;;19.47;73.17
21300;BME280;10809;49.476;11.016;2022-08-20T08:50:21;98257.38;;;19.48;72.45
21300;BME280;10809;49.476;11.016;2022-08-20T08:52:54;98260.06;;;19.48;72.82
21300;BME280;10809;49.476;11.016;2022-08-20T08:55:29;98257.22;;;19.50;72.63
21300;BME280;10809;49.476;11.016;2022-08-20T08:58:01;98262.34;;;19.53;72.69
21300;BME280;10809;49.476;11.016;2022-08-20T09:00:33;98261.38;;;19.54;72.68
21300;BME280;10809;49.476;11.016;2022-08-20T09:03:16;98267.16;;;19.59;73.08
21300;BME280;10809;49.476;11.016;2022-08-20T09:05:51;98272.81;;;19.65;73.43
21300;BME280;10809;49.476;11.016;2022-08-20T09:08:26;98273.38;;;19.69;72.53
21300;BME280;10809;49.476;11.016;2022-08-20T09:11:02;98268.28;;;19.75;73.39
21300;BME280;10809;49.476;11.016;2022-08-20T09:13:34;98275.63;;;19.83;73.30
21300;BME280;10809;49.476;11.016;2022-08-20T09:16:05;98266.13;;;19.89;72.99
21300;BME280;10809;49.476;11.016;2022-08-20T09:18:36;98265.56;;;19.95;73.24
21300;BME280;10809;49.476;11.016;2022-08-20T09:21:07;98257.78;;;20.01;72.78
21300;BME280;10809;49.476;11.016;2022-08-20T09:23:38;98255.31;;;20.08;72.72
21300;BME280;10809;49.476;11.016;2022-08-20T09:26:09;98263.66;;;20.14;72.40
21300;BME280;10809;49.476;11.016;2022-08-20T09:28:39;98261.97;;;20.23;72.86
21300;BME280;10809;49.476;11.016;2022-08-20T09:31:13;98270.16;;;20.31;72.77
21300;BME280;10809;49.476;11.016;2022-08-20T09:33:43;98267.03;;;20.35;72.53
21300;BME280;10809;49.476;11.016;2022-08-20T09:36:14;98265.59;;;20.41;71.73
21300;BME280;10809;49.476;11.016;2022-08-20T09:38:44;98269.53;;;20.46;71.79
21300;BME280;10809;49.476;11.016;2022-08-20T09:41:14;98263.88;;;20.49;71.43
21300;BME280;10809;49.476;11.016;2022-08-20T09:43:45;98263.56;;;20.52;71.37
21300;BME280;10809;49.476;11.016;2022-08-20T09:46:15;98262.25;;;20.56;70.69
21300;BME280;10809;49.476;11.016;2022-08-20T09:48:45;98262.81;;;20.60;70.60
21300;BME280;10809;49.476;11.016;2022-08-20T09:51:16;98261.69;;;20.62;70.60
21300;BME280;10809;49.476;11.016;2022-08-20T09:53:46;98259.53;;;20.66;70.51
21300;BME280;10809;49.476;11.016;2022-08-20T09:56:17;98258.41;;;20.68;70.07
21300;BME280;10809;49.476;11.016;2022-08-20T09:58:50;98262.63;;;20.71;69.69
21300;BME280;10809;49.476;11.016;2022-08-20T10:01:21;98257.97;;;20.73;69.92
21300;BME280;10809;49.476;11.016;2022-08-20T10:03:52;98257.81;;;20.74;69.24
21300;BME280;10809;49.476;11.016;2022-08-20T10:06:25;98257.81;;;20.74;69.47
21300;BME280;10809;49.476;11.016;2022-08-20T10:08:55;98252.44;;;20.74;69.58
21300;BME280;10809;49.476;11.016;2022-08-20T10:11:26;98254.25;;;20.74;70.10
21300;BME280;10809;49.476;11.016;2022-08-20T10:13:57;98254.09;;;20.75;70.09
21300;BME280;10809;49.476;11.016;2022-08-20T10:16:27;98261.19;;;20.76;69.64
21300;BME280;10809;49.476;11.016;2022-08-20T10:18:58;98254.66;;;20.79;70.01
21300;BME280;10809;49.476;11.016;2022-08-20T10:21:32;98255.50;;;20.79;69.48
21300;BME280;10809;49.476;11.016;2022-08-20T10:24:06;98258.88;;;20.81;69.46
21300;BME280;10809;49.476;11.016;2022-08-20T10:26:37;98258.88;;;20.81;69.03
21300;BME280;10809;49.476;11.016;2022-08-20T10:29:10;98265.13;;;20.82;69.16
21300;BME280;10809;49.476;11.016;2022-08-20T10:31:40;98264.28;;;20.81;68.52
21300;BME280;10809;49.476;11.016;2022-08-20T10:34:11;98264.13;;;20.83;68.95
21300;BME280;10809;49.476;11.016;2022-08-20T10:36:42;98258.59;;;20.84;69.54
21300;BME280;10809;49.476;11.016;2022-08-20T10:39:12;98262.00;;;20.86;69.37
21300;BME280;10809;49.476;11.016;2022-08-20T10:41:43;98258.00;;;20.90;69.17
21300;BME280;10809;49.476;11.016;2022-08-20T10:44:13;98262.06;;;20.94;69.25
21300;BME280;10809;49.476;11.016;2022-08-20T10:46:43;98262.50;;;20.99;68.98
21300;BME280;10809;49.476;11.016;2022-08-20T10:49:14;98256.66;;;21.04;69.00
21300;BME280;10809;49.476;11.016;2022-08-20T10:51:45;98260.72;;;21.08;68.55
21300;BME280;10809;49.476;11.016;2022-08-20T10:54:15;98260.44;;;21.11;68.01
21300;BME280;10809;49.476;11.016;2022-08-20T10:56:45;98248.38;;;21.15;68.58
21300;BME280;10809;49.476;11.016;2022-08-20T10:59:16;98252.59;;;21.17;69.29
21300;BME280;10809;49.476;11.016;2022-08-20T11:01:46;98247.75;;;21.21;67.88
21300;BME280;10809;49.476;11.016;2022-08-20T11:04:16;98249.28;;;21.23;67.77
21300;BME280;10809;49.476;11.016;2022-08-20T11:06:47;98253.69;;;21.24;67.64
21300;BME280;10809;49.476;11.016;2022-08-20T11:09:17;98246.44;;;21.25;67.35
21300;BME280;10809;49.476;11.016;2022-08-20T11:11:48;98248.16;;;21.26;68.29
21300;BME280;10809;49.476;11.016;2022-08-20T11:14:24;98249.69;;;21.28;67.57
21300;BME280;10809;49.476;11.016;2022-08-20T11:16:58;98248.53;;;21.31;67.71
21300;BME280;10809;49.476;11.016;2022-08-20T11:19:28;98248.22;;;21.34;67.25
21300;BME280;10809;49.476;11.016;2022-08-20T11:21:59;98246.78;;;21.39;67.54
21300;BME280;10809;49.476;11.016;2022-08-20T11:24:29;98252.53;;;21.44;67.63
21300;BME280;10809;49.476;11.016;2022-08-20T11:27:00;98243.81;;;21.50;67.19
21300;BME280;10809;49.476;11.016;2022-08-20T11:29:31;98241.34;;;21.57;67.36
21300;BME280;10809;49.476;11.016;2022-08-20T11:32:05;98235.34;;;21.63;67.54
21300;BME280;10809;49.476;11.016;2022-08-20T11:34:35;98235.59;;;21.70;67.52
21300;BME280;10809;49.476;11.016;2022-08-20T11:37:09;98228.41;;;21.78;66.70
21300;BME280;10809;49.476;11.016;2022-08-20T11:39:42;98226.66;;;21.87;67.00
21300;BME280;10809;49.476;11.016;2022-08-20T11:42:13;98226.69;;;21.95;67.02
21300;BME280;10809;49.476;11.016;2022-08-20T11:44:43;98217.94;;;22.01;66.92
21300;BME280;10809;49.476;11.016;2022-08-20T11:47:25;98217.84;;;22.10;67.54
21300;BME280;10809;49.476;11.016;2022-08-20T11:50:02;98224.00;;;22.20;66.97
21300;BME280;10809;49.476;11.016;2022-08-20T11:52:33;98220.50;;;22.28;67.06
21300;BME280;10809;49.476;11.016;2022-08-20T11:55:06;98212.31;;;22.37;66.35
21300;BME280;10809;49.476;11.016;2022-08-20T11:57:40;98216.72;;;22.46;66.41
21300;BME280;10809;49.476;11.016;2022-08-20T12:00:20;98220.66;;;22.52;65.54
21300;BME280;10809;49.476;11.016;2022-08-20T12:02:54;98223.03;;;22.55;65.32
21300;BME280;10809;49.476;11.016;2022-08-20T12:05:24;98215.91;;;22.54;65.04
21300;BME280;10809;49.476;11.016;2022-08-20T12:07:56;98210.84;;;22.51;63.81
21300;BME280;10809;49.476;11.016;2022-08-20T12:10:29;98211.31;;;22.46;63.75
21300;BME280;10809;49.476;11.016;2022-08-20T12:12:59;98212.66;;;22.42;64.07
21300;BME280;10809;49.476;11.016;2022-08-20T12:15:30;98214.00;;;22.38;64.11
21300;BME280;10809;49.476;11.016;2022-08-20T12:18:07;98208.25;;;22.33;64.24
21300;BME280;10809;49.476;11.016;2022-08-20T12:20:40;98214.09;;;22.29;64.25
21300;BME280;10809;49.476;11.016;2022-08-20T12:23:11;98215.44;;;22.25;64.09
21300;BME280;10809;49.476;11.016;2022-08-20T12:25:44;98221.47;;;22.19;63.85
21300;BME280;10809;49.476;11.016;2022-08-20T12:28:15;98218.22;;;22.15;63.90
21300;BME280;10809;49.476;11.016;2022-08-20T12:30:49;98223.94;;;22.12;63.79
21300;BME280;10809;49.476;11.016;2022-08-20T12:33:19;98213.63;;;22.08;63.38
21300;BME280;10809;49.476;11.016;2022-08-20T12:35:52;98218.66;;;22.03;63.25
21300;BME280;10809;49.476;11.016;2022-08-20T12:38:23;98218.97;;;22.00;62.40
21300;BME280;10809;49.476;11.016;2022-08-20T12:40:53;98223.16;;;21.94;62.31
21300;BME280;10809;49.476;11.016;2022-08-20T12:43:24;98219.91;;;21.91;62.70
21300;BME280;10809;49.476;11.016;2022-08-20T12:45:54;98217.69;;;21.86;63.04
21300;BME280;10809;49.476;11.016;2022-08-20T12:48:25;98223.56;;;21.82;63.66
21300;BME280;10809;49.476;11.016;2022-08-20T12:50:55;98222.19;;;21.78;63.75
21300;BME280;10809;49.476;11.016;2022-08-20T12:53:25;98230.75;;;21.73;63.74
21300;BME280;10809;49.476;11.016;2022-08-20T12:55:59;98240.13;;;21.69;64.03
21300;BME280;10809;49.476;11.016;2022-08-20T12:58:31;98240.44;;;21.66;63.62
21300;BME280;10809;49.476;11.016;2022-08-20T13:01:01;98240.72;;;21.63;63.60
21300;BME280;10809;49.476;11.016;2022-08-20T13:03:32;98243.75;;;21.60;63.34
21300;BME280;10809;49.476;11.016;2022-08-20T13:06:02;98247.59;;;21.58;63.72
21300;BME280;10809;49.476;11.016;2022-08-20T13:08:33;98238.81;;;21.56;63.91
21300;BME280;10809;49.476;11.016;2022-08-20T13:11:03;98249.91;;;21.52;64.27
21300;BME280;10809;49.476;11.016;2022-08-20T13:13:33;98255.44;;;21.51;64.30
21300;BME280;10809;49.476;11.016;2022-08-20T13:16:04;98247.53;;;21.49;65.01
21300;BME280;10809;49.476;11.016;2022-08-20T13:18:37;98241.44;;;21.47;65.57
21300;BME280;10809;49.476;11.016;2022-08-20T13:21:08;98245.13;;;21.46;65.50
21300;BME280;10809;49.476;11.016;2022-08-20T13:23:38;98239.75;;;21.46;65.86